Terminal Aerodrome Forecast
Issued by NWS

Home | Current Version | Previous Version | Text Only | Print | Product List | Glossary On
Versions: 1 2 3 4 5 6 7 8 9 10 11 12 13
248
FTUS42 KGSP 120537
TAFAND
TAF
KAND 120537Z 1206/1306 05004KT P6SM SCT150
     FM120900 05004KT P6SM BKN110
     FM122000 21006KT P6SM BKN250
     FM122100 25008KT P6SM SCT250=

USA.gov is the U.S. government's official web portal to all federal, state and local government web resources and services.